Terminal Aerodrome Forecast
Issued by NWS

Home | Current Version | Previous Version | Text Only | Print | Product List | Glossary Off
Versions: 1 2 3 4 5 6 7 8 9 10 11 12 13

840
FTUS44 KTSA 061120
TAFRVS
TAF
KRVS 061120Z 0612/0712 00000KT P6SM BKN070
     FM061300 32004KT P6SM SCT150
     FM062000 25005KT P6SM SKC
     FM070000 00000KT P6SM SKC=

USA.gov is the U.S. government's official web portal to all federal, state and local government web resources and services.